sensor_id;sensor_type;location;lat;lon;timestamp;temperature;humidity
506;DHT22;551;48.524;9.056;2023-06-24T00:01:48;16.90;1.00
506;DHT22;551;48.524;9.056;2023-06-24T00:04:14;16.90;1.00
506;DHT22;551;48.524;9.056;2023-06-24T00:06:43;16.90;1.00
506;DHT22;551;48.524;9.056;2023-06-24T00:09:08;16.80;1.00
506;DHT22;551;48.524;9.056;2023-06-24T00:11:34;16.80;1.00
506;DHT22;551;48.524;9.056;2023-06-24T00:13:59;16.70;1.00
506;DHT22;551;48.524;9.056;2023-06-24T00:16:25;16.70;1.00
506;DHT22;551;48.524;9.056;2023-06-24T00:18:55;16.60;1.00
506;DHT22;551;48.524;9.056;2023-06-24T00:21:24;16.60;1.00
506;DHT22;551;48.524;9.056;2023-06-24T00:23:56;16.60;1.00
506;DHT22;551;48.524;9.056;2023-06-24T00:26:21;16.60;1.00
506;DHT22;551;48.524;9.056;2023-06-24T00:28:47;16.60;1.00
506;DHT22;551;48.524;9.056;2023-06-24T00:31:12;16.60;1.00
506;DHT22;551;48.524;9.056;2023-06-24T00:33:38;16.50;1.00
506;DHT22;551;48.524;9.056;2023-06-24T00:36:04;16.50;1.00
506;DHT22;551;48.524;9.056;2023-06-24T00:38:30;16.50;1.00
506;DHT22;551;48.524;9.056;2023-06-24T00:40:58;16.40;1.00
506;DHT22;551;48.524;9.056;2023-06-24T00:43:24;16.40;1.00
506;DHT22;551;48.524;9.056;2023-06-24T00:45:50;16.30;1.00
506;DHT22;551;48.524;9.056;2023-06-24T00:48:15;16.30;1.00
506;DHT22;551;48.524;9.056;2023-06-24T00:50:41;16.30;1.00
506;DHT22;551;48.524;9.056;2023-06-24T00:53:10;16.20;1.00
506;DHT22;551;48.524;9.056;2023-06-24T00:55:37;16.20;1.00
506;DHT22;551;48.524;9.056;2023-06-24T00:58:03;16.20;1.00
506;DHT22;551;48.524;9.056;2023-06-24T01:00:29;16.10;1.00
506;DHT22;551;48.524;9.056;2023-06-24T01:02:58;16.10;1.00
506;DHT22;551;48.524;9.056;2023-06-24T01:05:24;16.00;1.00
506;DHT22;551;48.524;9.056;2023-06-24T01:07:51;16.00;1.00
506;DHT22;551;48.524;9.056;2023-06-24T01:10:21;15.90;1.00
506;DHT22;551;48.524;9.056;2023-06-24T01:12:47;16.00;1.00
506;DHT22;551;48.524;9.056;2023-06-24T01:15:13;15.90;1.00
506;DHT22;551;48.524;9.056;2023-06-24T01:17:48;15.90;1.00
506;DHT22;551;48.524;9.056;2023-06-24T01:20:29;16.00;1.00
506;DHT22;551;48.524;9.056;2023-06-24T01:23:20;15.90;1.00
506;DHT22;551;48.524;9.056;2023-06-24T01:37:19;15.90;1.00
506;DHT22;551;48.524;9.056;2023-06-24T01:40:20;15.80;1.00
506;DHT22;551;48.524;9.056;2023-06-24T01:42:48;15.80;1.00
506;DHT22;551;48.524;9.056;2023-06-24T01:45:23;15.70;1.00
506;DHT22;551;48.524;9.056;2023-06-24T01:47:49;15.70;1.00
506;DHT22;551;48.524;9.056;2023-06-24T01:50:21;15.60;1.00
506;DHT22;551;48.524;9.056;2023-06-24T01:52:48;15.60;1.00
506;DHT22;551;48.524;9.056;2023-06-24T01:55:19;15.50;1.00
506;DHT22;551;48.524;9.056;2023-06-24T01:57:46;15.50;1.00
506;DHT22;551;48.524;9.056;2023-06-24T02:00:14;15.40;1.00
506;DHT22;551;48.524;9.056;2023-06-24T02:02:41;15.30;1.00
506;DHT22;551;48.524;9.056;2023-06-24T02:05:08;15.30;1.00
506;DHT22;551;48.524;9.056;2023-06-24T02:07:34;15.30;1.00
506;DHT22;551;48.524;9.056;2023-06-24T02:10:01;15.20;1.00
506;DHT22;551;48.524;9.056;2023-06-24T02:12:28;15.20;1.00
506;DHT22;551;48.524;9.056;2023-06-24T02:14:58;15.10;1.00
506;DHT22;551;48.524;9.056;2023-06-24T02:17:24;15.10;1.00
506;DHT22;551;48.524;9.056;2023-06-24T02:19:51;15.10;1.00
506;DHT22;551;48.524;9.056;2023-06-24T02:22:18;15.10;1.00
506;DHT22;551;48.524;9.056;2023-06-24T02:24:45;15.10;1.00
506;DHT22;551;48.524;9.056;2023-06-24T02:27:12;15.00;1.00
506;DHT22;551;48.524;9.056;2023-06-24T02:29:39;15.00;1.00
506;DHT22;551;48.524;9.056;2023-06-24T02:32:06;15.00;1.00
506;DHT22;551;48.524;9.056;2023-06-24T02:34:32;15.00;1.00
506;DHT22;551;48.524;9.056;2023-06-24T02:36:57;15.00;1.00
506;DHT22;551;48.524;9.056;2023-06-24T02:39:23;15.00;1.00
506;DHT22;551;48.524;9.056;2023-06-24T02:41:49;14.90;1.00
506;DHT22;551;48.524;9.056;2023-06-24T02:44:15;14.90;1.00
506;DHT22;551;48.524;9.056;2023-06-24T02:46:42;14.90;1.00
506;DHT22;551;48.524;9.056;2023-06-24T02:49:09;14.80;1.00
506;DHT22;551;48.524;9.056;2023-06-24T02:51:37;14.80;1.00
506;DHT22;551;48.524;9.056;2023-06-24T02:54:03;14.80;1.00
506;DHT22;551;48.524;9.056;2023-06-24T02:56:30;14.80;1.00
506;DHT22;551;48.524;9.056;2023-06-24T02:58:56;14.70;1.00
506;DHT22;551;48.524;9.056;2023-06-24T03:01:21;14.70;1.00
506;DHT22;551;48.524;9.056;2023-06-24T03:03:52;14.70;1.00
506;DHT22;551;48.524;9.056;2023-06-24T03:06:19;14.60;1.00
506;DHT22;551;48.524;9.056;2023-06-24T03:08:45;14.60;1.00
506;DHT22;551;48.524;9.056;2023-06-24T03:11:14;14.60;1.00
506;DHT22;551;48.524;9.056;2023-06-24T03:13:40;14.60;1.00
506;DHT22;551;48.524;9.056;2023-06-24T03:16:06;14.60;1.00
506;DHT22;551;48.524;9.056;2023-06-24T03:18:43;14.60;1.00
506;DHT22;551;48.524;9.056;2023-06-24T03:21:09;14.60;1.00
506;DHT22;551;48.524;9.056;2023-06-24T03:23:35;14.60;1.00
506;DHT22;551;48.524;9.056;2023-06-24T03:26:01;14.50;1.00
506;DHT22;551;48.524;9.056;2023-06-24T03:28:31;14.50;1.00
506;DHT22;551;48.524;9.056;2023-06-24T03:30:57;14.50;1.00
506;DHT22;551;48.524;9.056;2023-06-24T03:33:23;14.50;1.00
506;DHT22;551;48.524;9.056;2023-06-24T03:35:50;14.50;1.00
506;DHT22;551;48.524;9.056;2023-06-24T03:38:15;14.40;1.00
506;DHT22;551;48.524;9.056;2023-06-24T03:40:41;14.40;1.00
506;DHT22;551;48.524;9.056;2023-06-24T03:43:06;14.40;1.00
506;DHT22;551;48.524;9.056;2023-06-24T03:45:32;14.50;1.00
506;DHT22;551;48.524;9.056;2023-06-24T03:47:57;14.50;1.00
506;DHT22;551;48.524;9.056;2023-06-24T03:50:23;14.50;1.00
506;DHT22;551;48.524;9.056;2023-06-24T03:52:48;14.50;1.00
506;DHT22;551;48.524;9.056;2023-06-24T03:55:14;14.60;1.00
506;DHT22;551;48.524;9.056;2023-06-24T03:57:39;14.60;1.00
506;DHT22;551;48.524;9.056;2023-06-24T04:00:05;14.60;1.00
506;DHT22;551;48.524;9.056;2023-06-24T04:02:38;14.60;1.00
506;DHT22;551;48.524;9.056;2023-06-24T04:05:04;14.60;1.00
506;DHT22;551;48.524;9.056;2023-06-24T04:07:31;14.60;1.00
506;DHT22;551;48.524;9.056;2023-06-24T04:09:57;14.70;1.00
506;DHT22;551;48.524;9.056;2023-06-24T04:12:23;14.60;1.00
506;DHT22;551;48.524;9.056;2023-06-24T04:14:49;14.70;1.00
506;DHT22;551;48.524;9.056;2023-06-24T04:17:15;14.70;1.00
506;DHT22;551;48.524;9.056;2023-06-24T04:19:41;14.70;1.00
506;DHT22;551;48.524;9.056;2023-06-24T04:22:07;14.90;1.00
506;DHT22;551;48.524;9.056;2023-06-24T04:24:33;15.00;1.00
506;DHT22;551;48.524;9.056;2023-06-24T04:26:58;15.10;1.00
506;DHT22;551;48.524;9.056;2023-06-24T04:29:24;15.20;1.00
506;DHT22;551;48.524;9.056;2023-06-24T04:31:49;15.30;1.00
506;DHT22;551;48.524;9.056;2023-06-24T04:34:15;15.40;1.00
506;DHT22;551;48.524;9.056;2023-06-24T04:36:40;15.60;1.00
506;DHT22;551;48.524;9.056;2023-06-24T04:39:06;15.70;1.00
506;DHT22;551;48.524;9.056;2023-06-24T04:41:31;15.80;1.00
506;DHT22;551;48.524;9.056;2023-06-24T04:43:57;15.80;1.00
506;DHT22;551;48.524;9.056;2023-06-24T04:46:23;16.00;1.00
506;DHT22;551;48.524;9.056;2023-06-24T04:48:49;16.00;1.00
506;DHT22;551;48.524;9.056;2023-06-24T04:51:15;16.20;1.00
506;DHT22;551;48.524;9.056;2023-06-24T04:53:40;16.30;1.00
506;DHT22;551;48.524;9.056;2023-06-24T04:56:06;16.50;1.00
506;DHT22;551;48.524;9.056;2023-06-24T04:58:32;16.60;1.00
506;DHT22;551;48.524;9.056;2023-06-24T05:00:57;16.80;1.00
506;DHT22;551;48.524;9.056;2023-06-24T05:03:24;17.20;1.00
506;DHT22;551;48.524;9.056;2023-06-24T05:05:49;17.80;1.00
506;DHT22;551;48.524;9.056;2023-06-24T05:08:15;18.80;1.00
506;DHT22;551;48.524;9.056;2023-06-24T05:10:40;19.80;1.00
506;DHT22;551;48.524;9.056;2023-06-24T05:13:06;20.80;1.00
506;DHT22;551;48.524;9.056;2023-06-24T05:15:31;21.40;1.00
506;DHT22;551;48.524;9.056;2023-06-24T05:17:57;21.80;1.00
506;DHT22;551;48.524;9.056;2023-06-24T05:20:22;22.20;1.00
506;DHT22;551;48.524;9.056;2023-06-24T05:22:48;22.50;1.00
506;DHT22;551;48.524;9.056;2023-06-24T05:25:13;23.20;1.00
506;DHT22;551;48.524;9.056;2023-06-24T05:27:39;23.90;1.00
506;DHT22;551;48.524;9.056;2023-06-24T05:30:07;24.90;1.00
506;DHT22;551;48.524;9.056;2023-06-24T05:32:32;25.70;1.00
506;DHT22;551;48.524;9.056;2023-06-24T05:34:58;26.90;1.00
506;DHT22;551;48.524;9.056;2023-06-24T05:37:23;27.70;1.00
506;DHT22;551;48.524;9.056;2023-06-24T05:39:49;28.30;1.00
506;DHT22;551;48.524;9.056;2023-06-24T05:42:14;29.00;1.00
506;DHT22;551;48.524;9.056;2023-06-24T05:44:40;29.80;1.00
506;DHT22;551;48.524;9.056;2023-06-24T05:47:05;30.10;1.00
506;DHT22;551;48.524;9.056;2023-06-24T05:49:31;30.50;1.00
506;DHT22;551;48.524;9.056;2023-06-24T05:51:57;31.40;1.00
506;DHT22;551;48.524;9.056;2023-06-24T05:54:23;31.60;1.00
506;DHT22;551;48.524;9.056;2023-06-24T05:56:48;32.00;1.00
506;DHT22;551;48.524;9.056;2023-06-24T05:59:14;32.80;1.00
506;DHT22;551;48.524;9.056;2023-06-24T06:01:39;32.80;1.00
506;DHT22;551;48.524;9.056;2023-06-24T06:04:05;32.80;1.00
506;DHT22;551;48.524;9.056;2023-06-24T06:06:30;33.00;1.00
506;DHT22;551;48.524;9.056;2023-06-24T06:08:59;33.70;1.00
506;DHT22;551;48.524;9.056;2023-06-24T06:11:25;34.30;1.00
506;DHT22;551;48.524;9.056;2023-06-24T06:13:51;35.10;1.00
506;DHT22;551;48.524;9.056;2023-06-24T06:16:17;35.30;1.00
506;DHT22;551;48.524;9.056;2023-06-24T06:18:43;35.70;1.00
506;DHT22;551;48.524;9.056;2023-06-24T06:21:09;36.10;1.00
506;DHT22;551;48.524;9.056;2023-06-24T06:23:34;36.50;1.00
506;DHT22;551;48.524;9.056;2023-06-24T06:26:00;36.40;1.00
506;DHT22;551;48.524;9.056;2023-06-24T06:28:25;36.90;1.00
506;DHT22;551;48.524;9.056;2023-06-24T06:30:51;37.70;1.00
506;DHT22;551;48.524;9.056;2023-06-24T06:33:16;38.20;1.00
506;DHT22;551;48.524;9.056;2023-06-24T06:35:42;38.40;1.00
506;DHT22;551;48.524;9.056;2023-06-24T06:38:07;38.70;1.00
506;DHT22;551;48.524;9.056;2023-06-24T06:40:33;38.60;1.00
506;DHT22;551;48.524;9.056;2023-06-24T06:42:58;38.50;1.00
506;DHT22;551;48.524;9.056;2023-06-24T06:45:24;38.70;1.00
506;DHT22;551;48.524;9.056;2023-06-24T06:47:50;39.10;1.00
506;DHT22;551;48.524;9.056;2023-06-24T06:50:15;39.80;1.00
506;DHT22;551;48.524;9.056;2023-06-24T06:52:41;40.10;1.00
506;DHT22;551;48.524;9.056;2023-06-24T06:55:07;40.00;1.00
506;DHT22;551;48.524;9.056;2023-06-24T06:57:32;39.80;1.00
506;DHT22;551;48.524;9.056;2023-06-24T06:59:58;40.20;1.00
506;DHT22;551;48.524;9.056;2023-06-24T07:02:23;40.70;1.00
506;DHT22;551;48.524;9.056;2023-06-24T07:04:49;41.00;1.00
506;DHT22;551;48.524;9.056;2023-06-24T07:07:16;41.80;1.00
506;DHT22;551;48.524;9.056;2023-06-24T07:09:41;42.50;1.00
506;DHT22;551;48.524;9.056;2023-06-24T07:12:07;42.60;1.00
506;DHT22;551;48.524;9.056;2023-06-24T07:14:33;43.50;1.00
506;DHT22;551;48.524;9.056;2023-06-24T07:16:59;42.90;1.00
506;DHT22;551;48.524;9.056;2023-06-24T07:19:24;42.90;1.00
506;DHT22;551;48.524;9.056;2023-06-24T07:21:51;43.70;1.00
506;DHT22;551;48.524;9.056;2023-06-24T07:24:17;43.70;1.00
506;DHT22;551;48.524;9.056;2023-06-24T07:26:42;43.90;1.00
506;DHT22;551;48.524;9.056;2023-06-24T07:29:08;44.10;1.00
506;DHT22;551;48.524;9.056;2023-06-24T07:31:34;44.00;1.00
506;DHT22;551;48.524;9.056;2023-06-24T07:34:00;43.90;1.00
506;DHT22;551;48.524;9.056;2023-06-24T07:36:25;44.00;1.00
506;DHT22;551;48.524;9.056;2023-06-24T07:38:51;43.50;1.00
506;DHT22;551;48.524;9.056;2023-06-24T07:41:16;43.80;1.00
506;DHT22;551;48.524;9.056;2023-06-24T07:43:42;43.90;1.00
506;DHT22;551;48.524;9.056;2023-06-24T07:46:07;44.30;1.00
506;DHT22;551;48.524;9.056;2023-06-24T07:48:33;43.60;1.00
506;DHT22;551;48.524;9.056;2023-06-24T07:50:59;44.40;1.00
506;DHT22;551;48.524;9.056;2023-06-24T07:53:24;44.40;1.00
506;DHT22;551;48.524;9.056;2023-06-24T07:55:50;45.60;1.00
506;DHT22;551;48.524;9.056;2023-06-24T07:58:15;45.20;1.00
506;DHT22;551;48.524;9.056;2023-06-24T08:00:41;45.00;1.00
506;DHT22;551;48.524;9.056;2023-06-24T08:03:06;45.80;1.00
506;DHT22;551;48.524;9.056;2023-06-24T08:05:32;46.20;1.00
506;DHT22;551;48.524;9.056;2023-06-24T08:07:57;46.30;1.00
506;DHT22;551;48.524;9.056;2023-06-24T08:10:23;47.60;1.00
506;DHT22;551;48.524;9.056;2023-06-24T08:12:48;47.50;1.00
506;DHT22;551;48.524;9.056;2023-06-24T08:15:14;47.40;1.00
506;DHT22;551;48.524;9.056;2023-06-24T08:17:40;48.40;1.00
506;DHT22;551;48.524;9.056;2023-06-24T08:20:06;48.30;1.00
506;DHT22;551;48.524;9.056;2023-06-24T08:22:31;48.60;1.00
506;DHT22;551;48.524;9.056;2023-06-24T08:24:58;48.00;1.00
506;DHT22;551;48.524;9.056;2023-06-24T08:27:24;47.70;1.00
506;DHT22;551;48.524;9.056;2023-06-24T08:29:49;47.20;1.00
506;DHT22;551;48.524;9.056;2023-06-24T08:32:15;46.80;1.00
506;DHT22;551;48.524;9.056;2023-06-24T08:34:40;46.50;1.00
506;DHT22;551;48.524;9.056;2023-06-24T08:37:06;46.40;1.00
506;DHT22;551;48.524;9.056;2023-06-24T08:39:31;46.70;1.00
506;DHT22;551;48.524;9.056;2023-06-24T08:41:57;48.10;1.00
506;DHT22;551;48.524;9.056;2023-06-24T08:44:22;48.50;1.00
506;DHT22;551;48.524;9.056;2023-06-24T08:46:48;49.00;1.00
506;DHT22;551;48.524;9.056;2023-06-24T08:49:50;48.70;1.00
506;DHT22;551;48.524;9.056;2023-06-24T08:52:19;47.90;1.00
506;DHT22;551;48.524;9.056;2023-06-24T08:54:49;48.00;1.00
506;DHT22;551;48.524;9.056;2023-06-24T08:57:15;47.70;1.00
506;DHT22;551;48.524;9.056;2023-06-24T08:59:42;47.60;1.00
506;DHT22;551;48.524;9.056;2023-06-24T09:02:08;47.90;1.00
506;DHT22;551;48.524;9.056;2023-06-24T09:04:34;46.90;1.00
506;DHT22;551;48.524;9.056;2023-06-24T09:07:00;46.60;1.00
506;DHT22;551;48.524;9.056;2023-06-24T09:09:25;46.50;1.00
506;DHT22;551;48.524;9.056;2023-06-24T09:11:57;47.20;1.00
506;DHT22;551;48.524;9.056;2023-06-24T09:14:29;47.90;1.00
506;DHT22;551;48.524;9.056;2023-06-24T09:16:57;47.20;1.00
506;DHT22;551;48.524;9.056;2023-06-24T09:19:25;47.30;1.00
506;DHT22;551;48.524;9.056;2023-06-24T09:21:53;48.10;1.00
506;DHT22;551;48.524;9.056;2023-06-24T09:24:19;47.80;1.00
506;DHT22;551;48.524;9.056;2023-06-24T09:26:44;47.30;1.00
506;DHT22;551;48.524;9.056;2023-06-24T09:29:13;46.40;1.00
506;DHT22;551;48.524;9.056;2023-06-24T09:31:50;46.90;1.00
506;DHT22;551;48.524;9.056;2023-06-24T09:34:21;47.80;1.00
506;DHT22;551;48.524;9.056;2023-06-24T09:36:55;48.30;1.00
506;DHT22;551;48.524;9.056;2023-06-24T09:39:21;48.00;1.00
506;DHT22;551;48.524;9.056;2023-06-24T09:41:50;47.30;1.00
506;DHT22;551;48.524;9.056;2023-06-24T09:44:16;47.90;1.00
506;DHT22;551;48.524;9.056;2023-06-24T09:46:44;48.60;1.00
506;DHT22;551;48.524;9.056;2023-06-24T09:49:10;48.30;1.00
506;DHT22;551;48.524;9.056;2023-06-24T09:51:45;48.70;1.00
506;DHT22;551;48.524;9.056;2023-06-24T09:54:13;48.50;1.00
506;DHT22;551;48.524;9.056;2023-06-24T09:56:43;48.70;1.00
506;DHT22;551;48.524;9.056;2023-06-24T09:59:12;49.00;1.00
506;DHT22;551;48.524;9.056;2023-06-24T10:01:40;49.40;1.00
506;DHT22;551;48.524;9.056;2023-06-24T10:04:06;49.80;1.00
506;DHT22;551;48.524;9.056;2023-06-24T10:06:33;49.40;1.00
506;DHT22;551;48.524;9.056;2023-06-24T10:08:59;49.30;1.00
506;DHT22;551;48.524;9.056;2023-06-24T10:11:26;48.60;1.00
506;DHT22;551;48.524;9.056;2023-06-24T10:13:52;48.50;1.00
506;DHT22;551;48.524;9.056;2023-06-24T10:16:18;48.10;1.00
506;DHT22;551;48.524;9.056;2023-06-24T10:18:45;48.40;1.00
506;DHT22;551;48.524;9.056;2023-06-24T10:21:11;48.60;1.00
506;DHT22;551;48.524;9.056;2023-06-24T10:23:53;47.30;1.00
506;DHT22;551;48.524;9.056;2023-06-24T10:26:27;47.30;1.00
506;DHT22;551;48.524;9.056;2023-06-24T10:34:28;47.40;1.00
506;DHT22;551;48.524;9.056;2023-06-24T10:39:55;48.10;1.00
506;DHT22;551;48.524;9.056;2023-06-24T10:44:50;48.10;1.00
506;DHT22;551;48.524;9.056;2023-06-24T10:47:16;47.80;1.00
506;DHT22;551;48.524;9.056;2023-06-24T10:49:42;47.50;1.00
506;DHT22;551;48.524;9.056;2023-06-24T10:52:11;47.10;1.00
506;DHT22;551;48.524;9.056;2023-06-24T10:54:38;46.30;1.00
506;DHT22;551;48.524;9.056;2023-06-24T10:57:04;46.20;1.00
506;DHT22;551;48.524;9.056;2023-06-24T10:59:40;45.60;1.00
506;DHT22;551;48.524;9.056;2023-06-24T11:02:08;45.80;1.00
506;DHT22;551;48.524;9.056;2023-06-24T11:04:45;45.40;1.00
506;DHT22;551;48.524;9.056;2023-06-24T11:07:11;45.20;1.00
506;DHT22;551;48.524;9.056;2023-06-24T11:09:36;45.70;1.00
506;DHT22;551;48.524;9.056;2023-06-24T11:12:03;45.60;1.00
506;DHT22;551;48.524;9.056;2023-06-24T11:14:29;45.50;1.00
506;DHT22;551;48.524;9.056;2023-06-24T11:16:54;45.40;1.00
506;DHT22;551;48.524;9.056;2023-06-24T11:19:20;45.30;1.00
506;DHT22;551;48.524;9.056;2023-06-24T11:21:45;44.90;1.00
506;DHT22;551;48.524;9.056;2023-06-24T11:24:11;44.30;1.00
506;DHT22;551;48.524;9.056;2023-06-24T11:26:37;44.40;1.00
506;DHT22;551;48.524;9.056;2023-06-24T11:29:12;44.20;1.00
506;DHT22;551;48.524;9.056;2023-06-24T11:31:38;44.40;1.00
506;DHT22;551;48.524;9.056;2023-06-24T11:34:04;44.60;1.00
506;DHT22;551;48.524;9.056;2023-06-24T11:36:29;45.30;1.00
506;DHT22;551;48.524;9.056;2023-06-24T11:38:55;45.20;1.00
506;DHT22;551;48.524;9.056;2023-06-24T11:41:21;45.00;1.00
506;DHT22;551;48.524;9.056;2023-06-24T11:43:47;45.40;1.00
506;DHT22;551;48.524;9.056;2023-06-24T11:46:30;44.80;1.00
506;DHT22;551;48.524;9.056;2023-06-24T11:49:08;44.80;1.00
506;DHT22;551;48.524;9.056;2023-06-24T11:51:35;44.90;1.00
506;DHT22;551;48.524;9.056;2023-06-24T11:54:05;44.70;1.00
506;DHT22;551;48.524;9.056;2023-06-24T11:56:40;43.40;1.00
506;DHT22;551;48.524;9.056;2023-06-24T11:59:14;42.60;1.00
506;DHT22;551;48.524;9.056;2023-06-24T12:01:43;41.50;1.00
506;DHT22;551;48.524;9.056;2023-06-24T12:04:13;39.60;1.00
506;DHT22;551;48.524;9.056;2023-06-24T12:06:43;38.10;1.00
506;DHT22;551;48.524;9.056;2023-06-24T12:09:09;36.90;1.00
506;DHT22;551;48.524;9.056;2023-06-24T12:11:35;35.80;1.00
506;DHT22;551;48.524;9.056;2023-06-24T12:14:01;35.10;1.00
506;DHT22;551;48.524;9.056;2023-06-24T12:16:26;34.40;1.00
506;DHT22;551;48.524;9.056;2023-06-24T12:18:53;33.70;1.00
506;DHT22;551;48.524;9.056;2023-06-24T12:21:18;33.40;1.00
506;DHT22;551;48.524;9.056;2023-06-24T12:23:44;33.00;1.00
506;DHT22;551;48.524;9.056;2023-06-24T12:26:10;32.50;1.00
506;DHT22;551;48.524;9.056;2023-06-24T12:28:35;32.20;1.00
506;DHT22;551;48.524;9.056;2023-06-24T12:31:01;31.90;1.00
506;DHT22;551;48.524;9.056;2023-06-24T12:33:27;32.00;1.00
506;DHT22;551;48.524;9.056;2023-06-24T12:35:52;31.70;1.00
506;DHT22;551;48.524;9.056;2023-06-24T12:38:17;31.60;1.00
506;DHT22;551;48.524;9.056;2023-06-24T12:40:43;31.40;1.00
506;DHT22;551;48.524;9.056;2023-06-24T12:43:10;31.30;1.00
506;DHT22;551;48.524;9.056;2023-06-24T12:45:36;31.10;1.00
506;DHT22;551;48.524;9.056;2023-06-24T12:48:03;30.70;1.00
506;DHT22;551;48.524;9.056;2023-06-24T12:50:29;30.70;1.00
506;DHT22;551;48.524;9.056;2023-06-24T12:52:57;30.60;1.00
506;DHT22;551;48.524;9.056;2023-06-24T12:55:23;30.60;1.00
506;DHT22;551;48.524;9.056;2023-06-24T12:57:48;30.60;1.00
506;DHT22;551;48.524;9.056;2023-06-24T13:00:15;30.60;1.00
506;DHT22;551;48.524;9.056;2023-06-24T13:02:44;30.70;1.00
506;DHT22;551;48.524;9.056;2023-06-24T13:05:09;30.60;1.00
506;DHT22;551;48.524;9.056;2023-06-24T13:07:35;30.60;1.00
506;DHT22;551;48.524;9.056;2023-06-24T13:10:01;30.60;1.00
506;DHT22;551;48.524;9.056;2023-06-24T13:12:27;30.50;1.00
506;DHT22;551;48.524;9.056;2023-06-24T13:14:52;30.70;1.00
506;DHT22;551;48.524;9.056;2023-06-24T13:17:18;30.60;1.00
506;DHT22;551;48.524;9.056;2023-06-24T13:19:43;30.60;1.00
506;DHT22;551;48.524;9.056;2023-06-24T13:22:09;30.40;1.00
506;DHT22;551;48.524;9.056;2023-06-24T13:24:34;30.40;1.00
506;DHT22;551;48.524;9.056;2023-06-24T13:27:00;30.40;1.00
506;DHT22;551;48.524;9.056;2023-06-24T13:29:25;30.40;1.00
506;DHT22;551;48.524;9.056;2023-06-24T13:31:52;30.30;1.00
506;DHT22;551;48.524;9.056;2023-06-24T13:34:18;30.20;1.00
506;DHT22;551;48.524;9.056;2023-06-24T13:36:44;30.10;1.00
506;DHT22;551;48.524;9.056;2023-06-24T13:39:09;30.20;1.00
506;DHT22;551;48.524;9.056;2023-06-24T13:41:38;30.20;1.00
506;DHT22;551;48.524;9.056;2023-06-24T13:44:04;30.10;1.00
506;DHT22;551;48.524;9.056;2023-06-24T13:46:31;30.10;1.00
506;DHT22;551;48.524;9.056;2023-06-24T13:48:57;30.10;1.00
506;DHT22;551;48.524;9.056;2023-06-24T13:51:23;30.10;1.00
506;DHT22;551;48.524;9.056;2023-06-24T13:53:51;30.20;1.00
506;DHT22;551;48.524;9.056;2023-06-24T13:56:19;30.30;1.00
506;DHT22;551;48.524;9.056;2023-06-24T13:58:45;30.20;1.00
506;DHT22;551;48.524;9.056;2023-06-24T14:01:11;30.20;1.00
506;DHT22;551;48.524;9.056;2023-06-24T14:03:37;30.20;1.00
506;DHT22;551;48.524;9.056;2023-06-24T14:06:03;30.10;1.00
506;DHT22;551;48.524;9.056;2023-06-24T14:08:29;30.00;1.00
506;DHT22;551;48.524;9.056;2023-06-24T14:10:56;30.00;1.00
506;DHT22;551;48.524;9.056;2023-06-24T14:13:22;30.00;1.00
506;DHT22;551;48.524;9.056;2023-06-24T14:15:48;30.10;1.00
506;DHT22;551;48.524;9.056;2023-06-24T14:18:13;30.00;1.00
506;DHT22;551;48.524;9.056;2023-06-24T14:20:39;30.10;1.00
506;DHT22;551;48.524;9.056;2023-06-24T14:23:05;30.00;1.00
506;DHT22;551;48.524;9.056;2023-06-24T14:25:31;29.90;1.00
506;DHT22;551;48.524;9.056;2023-06-24T14:27:56;30.00;1.00
506;DHT22;551;48.524;9.056;2023-06-24T14:30:22;29.90;1.00
506;DHT22;551;48.524;9.056;2023-06-24T14:32:48;29.90;1.00
506;DHT22;551;48.524;9.056;2023-06-24T14:35:13;29.90;1.00
506;DHT22;551;48.524;9.056;2023-06-24T14:37:39;29.90;1.00
506;DHT22;551;48.524;9.056;2023-06-24T14:40:05;30.00;1.00
506;DHT22;551;48.524;9.056;2023-06-24T14:42:31;29.90;1.00
506;DHT22;551;48.524;9.056;2023-06-24T14:44:57;29.90;1.00
506;DHT22;551;48.524;9.056;2023-06-24T14:47:22;29.90;1.00
506;DHT22;551;48.524;9.056;2023-06-24T14:49:48;30.00;1.00
506;DHT22;551;48.524;9.056;2023-06-24T14:52:13;29.90;1.00
506;DHT22;551;48.524;9.056;2023-06-24T14:54:39;29.80;1.00
506;DHT22;551;48.524;9.056;2023-06-24T14:57:04;29.90;1.00
506;DHT22;551;48.524;9.056;2023-06-24T14:59:30;29.80;1.00
506;DHT22;551;48.524;9.056;2023-06-24T15:01:55;29.70;1.00
506;DHT22;551;48.524;9.056;2023-06-24T15:04:21;29.70;1.00
506;DHT22;551;48.524;9.056;2023-06-24T15:06:46;29.80;1.00
506;DHT22;551;48.524;9.056;2023-06-24T15:09:12;29.80;1.00
506;DHT22;551;48.524;9.056;2023-06-24T15:11:37;29.80;1.00
506;DHT22;551;48.524;9.056;2023-06-24T15:14:03;29.90;1.00
506;DHT22;551;48.524;9.056;2023-06-24T15:16:28;29.80;1.00
506;DHT22;551;48.524;9.056;2023-06-24T15:18:54;29.80;1.00
506;DHT22;551;48.524;9.056;2023-06-24T15:21:19;29.60;1.00
506;DHT22;551;48.524;9.056;2023-06-24T15:23:46;29.60;1.00
506;DHT22;551;48.524;9.056;2023-06-24T15:26:11;29.40;1.00
506;DHT22;551;48.524;9.056;2023-06-24T15:28:37;29.40;1.00
506;DHT22;551;48.524;9.056;2023-06-24T15:31:03;29.30;1.00
506;DHT22;551;48.524;9.056;2023-06-24T15:33:28;29.30;1.00
506;DHT22;551;48.524;9.056;2023-06-24T15:35:54;29.30;1.00
506;DHT22;551;48.524;9.056;2023-06-24T15:38:20;29.30;1.00
506;DHT22;551;48.524;9.056;2023-06-24T15:40:46;29.30;1.00
506;DHT22;551;48.524;9.056;2023-06-24T15:43:12;29.30;1.00
506;DHT22;551;48.524;9.056;2023-06-24T15:45:38;29.20;1.00
506;DHT22;551;48.524;9.056;2023-06-24T15:48:04;29.20;1.00
506;DHT22;551;48.524;9.056;2023-06-24T15:50:30;29.10;1.00
506;DHT22;551;48.524;9.056;2023-06-24T15:52:55;29.10;1.00
506;DHT22;551;48.524;9.056;2023-06-24T15:55:21;29.10;1.00
506;DHT22;551;48.524;9.056;2023-06-24T15:57:47;29.00;1.00
506;DHT22;551;48.524;9.056;2023-06-24T16:00:13;29.00;1.00
506;DHT22;551;48.524;9.056;2023-06-24T16:02:38;28.90;1.00
506;DHT22;551;48.524;9.056;2023-06-24T16:05:04;28.80;1.00
506;DHT22;551;48.524;9.056;2023-06-24T16:07:32;28.70;1.00
506;DHT22;551;48.524;9.056;2023-06-24T16:09:57;28.60;1.00
506;DHT22;551;48.524;9.056;2023-06-24T16:12:23;28.70;1.00
506;DHT22;551;48.524;9.056;2023-06-24T16:14:48;28.70;1.00
506;DHT22;551;48.524;9.056;2023-06-24T16:17:14;28.60;1.00
506;DHT22;551;48.524;9.056;2023-06-24T16:19:39;28.50;1.00
506;DHT22;551;48.524;9.056;2023-06-24T16:22:05;28.50;1.00
506;DHT22;551;48.524;9.056;2023-06-24T16:24:30;28.40;1.00
506;DHT22;551;48.524;9.056;2023-06-24T16:26:56;28.50;1.00
506;DHT22;551;48.524;9.056;2023-06-24T16:29:21;28.40;1.00
506;DHT22;551;48.524;9.056;2023-06-24T16:31:47;28.40;1.00
506;DHT22;551;48.524;9.056;2023-06-24T16:34:13;28.40;1.00
506;DHT22;551;48.524;9.056;2023-06-24T16:36:38;28.40;1.00
506;DHT22;551;48.524;9.056;2023-06-24T16:39:04;28.40;1.00
506;DHT22;551;48.524;9.056;2023-06-24T16:41:30;28.40;1.00
506;DHT22;551;48.524;9.056;2023-06-24T16:43:55;28.40;1.00
506;DHT22;551;48.524;9.056;2023-06-24T16:46:20;28.30;1.00
506;DHT22;551;48.524;9.056;2023-06-24T16:48:46;28.30;1.00
506;DHT22;551;48.524;9.056;2023-06-24T16:51:12;28.20;1.00
506;DHT22;551;48.524;9.056;2023-06-24T16:53:37;28.20;1.00
506;DHT22;551;48.524;9.056;2023-06-24T16:56:03;28.20;1.00
506;DHT22;551;48.524;9.056;2023-06-24T16:58:28;28.20;1.00
506;DHT22;551;48.524;9.056;2023-06-24T17:00:54;28.20;1.00
506;DHT22;551;48.524;9.056;2023-06-24T17:03:19;28.10;1.00
506;DHT22;551;48.524;9.056;2023-06-24T17:05:45;28.10;1.00
506;DHT22;551;48.524;9.056;2023-06-24T17:08:10;28.10;1.00
506;DHT22;551;48.524;9.056;2023-06-24T17:10:36;28.10;1.00